Time;durP1;ratioP1;P1;durP2;ratioP2;P2;SDS_P1;SDS_P2;PMS_P1;PMS_P2;Temp;Humidity;BMP_temperature;BMP_pressure;BME280_temperature;BME280_humidity;BME280_pressure;Samples;Min_cycle;Max_cycle;Signal;HPM_P1;HPM_P2
2023/02/08 00:01:26;;;;;;;11.20;8.47;;;0.40;31.10;;;;;;10413813;28;20234;-70
2023/02/08 00:06:31;;;;;;;9.70;8.03;;;0.40;31.20;;;;;;10415033;28;20237;-70
2023/02/08 00:11:34;;;;;;;10.93;7.77;;;0.40;31.30;;;;;;10415448;28;20744;-68
2023/02/08 00:16:37;;;;;;;9.37;7.20;;;0.30;31.30;;;;;;10415688;28;20225;-68
2023/02/08 00:21:42;;;;;;;8.17;6.80;;;0.20;31.30;;;;;;10412620;28;20233;-68
2023/02/08 00:26:45;;;;;;;10.17;7.53;;;0.20;31.30;;;;;;10417687;28;20236;-69
2023/02/08 00:31:48;;;;;;;9.10;7.83;;;0.10;31.50;;;;;;10421814;28;20236;-69
2023/02/08 00:36:53;;;;;;;8.83;7.53;;;0.10;31.40;;;;;;10415495;28;20233;-69
2023/02/08 00:41:56;;;;;;;9.13;7.00;;;0.00;31.40;;;;;;10415934;28;20603;-69
2023/02/08 00:46:59;;;;;;;10.10;7.47;;;-0.10;31.30;;;;;;10415219;28;20752;-69
2023/02/08 00:52:04;;;;;;;9.00;7.20;;;-0.20;31.30;;;;;;10415526;28;20777;-69
2023/02/08 00:57:07;;;;;;;7.17;5.97;;;-0.30;31.50;;;;;;10420285;28;20727;-69
2023/02/08 01:02:10;;;;;;;8.67;6.47;;;-0.40;31.60;;;;;;10410248;28;20237;-69
2023/02/08 01:07:15;;;;;;;8.17;6.77;;;-0.40;31.80;;;;;;10418487;28;20233;-69
2023/02/08 01:12:18;;;;;;;7.67;6.03;;;-0.40;31.90;;;;;;10413007;28;20280;-69
2023/02/08 01:17:22;;;;;;;7.07;5.77;;;-0.40;31.70;;;;;;10412043;28;20233;-69
2023/02/08 01:22:28;;;;;;;8.70;6.23;;;-0.40;31.70;;;;;;10419068;28;20230;-69
2023/02/08 01:27:31;;;;;;;6.60;5.53;;;-0.50;32.00;;;;;;10415050;28;20263;-69
2023/02/08 01:32:35;;;;;;;7.40;6.17;;;-0.50;32.10;;;;;;10426015;28;20234;-69
2023/02/08 01:37:39;;;;;;;7.67;5.53;;;-0.50;32.30;;;;;;10426615;28;20225;-69
2023/02/08 01:42:42;;;;;;;8.03;6.03;;;-0.60;32.20;;;;;;10421000;28;20738;-69
2023/02/08 01:47:48;;;;;;;7.70;5.83;;;-0.60;32.20;;;;;;10417447;28;20237;-69
2023/02/08 01:52:53;;;;;;;7.93;6.07;;;-0.60;32.20;;;;;;10420909;28;20241;-69
2023/02/08 01:58:00;;;;;;;7.90;5.77;;;-0.60;32.20;;;;;;10431429;28;20241;-69
2023/02/08 02:03:04;;;;;;;9.07;6.07;;;-0.60;32.20;;;;;;10417560;28;20226;-69
2023/02/08 02:08:09;;;;;;;10.27;6.37;;;-0.70;32.10;;;;;;10422826;28;20745;-69
2023/02/08 02:13:16;;;;;;;10.50;6.20;;;-0.70;32.10;;;;;;10419024;28;20233;-69
2023/02/08 02:18:24;;;;;;;8.90;6.33;;;-0.70;32.10;;;;;;10420103;28;20232;-69
2023/02/08 02:23:54;;;;;;;8.53;6.87;;;-0.70;32.10;;;;;;10416580;28;20234;-69
2023/02/08 02:29:47;;;;;;;8.87;6.83;;;-0.70;32.10;;;;;;10417122;28;20242;-69
2023/02/08 02:35:00;;;;;;;9.97;7.23;;;-0.80;32.00;;;;;;10332790;28;20244;-69
2023/02/08 02:40:14;;;;;;;10.53;7.43;;;-0.80;32.00;;;;;;10418049;28;20226;-69
2023/02/08 02:45:26;;;;;;;11.20;7.60;;;-0.80;32.80;;;;;;10416106;28;20229;-69
2023/02/08 02:50:34;;;;;;;10.73;8.20;;;-0.80;32.00;;;;;;10418104;28;20233;-69
2023/02/08 02:55:43;;;;;;;11.57;8.87;;;-0.80;32.10;;;;;;10417992;28;20236;-69
2023/02/08 03:00:52;;;;;;;8.83;7.67;;;-0.90;31.90;;;;;;10420666;28;20235;-69
2023/02/08 03:06:00;;;;;;;12.67;8.47;;;-0.90;31.90;;;;;;10420873;28;20312;-69
2023/02/08 03:11:19;;;;;;;12.03;8.37;;;-0.80;32.00;;;;;;10411142;28;20233;-68
2023/02/08 03:16:31;;;;;;;10.33;8.30;;;-0.80;32.10;;;;;;10415479;28;20241;-68
2023/02/08 03:21:43;;;;;;;12.57;8.93;;;-0.80;32.00;;;;;;10416221;28;20239;-69
2023/02/08 03:26:53;;;;;;;11.73;8.53;;;-0.70;32.10;;;;;;10413583;28;20642;-68
2023/02/08 03:32:00;;;;;;;11.13;8.87;;;-0.70;32.10;;;;;;10415100;28;20248;-69
2023/02/08 03:37:09;;;;;;;13.53;8.90;;;-0.70;32.20;;;;;;10417378;28;20301;-69
2023/02/08 03:42:27;;;;;;;12.70;8.57;;;-0.70;32.10;;;;;;10422333;28;20712;-68
2023/02/08 03:47:34;;;;;;;12.87;9.07;;;-0.70;32.20;;;;;;10420894;28;20233;-68
2023/02/08 03:52:39;;;;;;;13.47;10.03;;;-0.70;32.20;;;;;;10417083;28;20326;-68
2023/02/08 03:57:48;;;;;;;13.50;9.23;;;-0.70;32.20;;;;;;10421865;28;20241;-68
2023/02/08 04:02:56;;;;;;;13.23;9.13;;;-0.70;32.10;;;;;;10413198;28;20236;-68
2023/02/08 04:08:01;;;;;;;12.93;10.13;;;-0.60;32.20;;;;;;10417633;28;20610;-68
2023/02/08 04:13:04;;;;;;;11.70;9.47;;;-0.60;32.20;;;;;;10417317;28;20228;-68
2023/02/08 04:18:07;;;;;;;13.30;9.63;;;-0.60;32.20;;;;;;10418864;28;20337;-69
2023/02/08 04:23:12;;;;;;;14.03;9.50;;;-0.50;32.30;;;;;;10417586;28;20244;-68
2023/02/08 04:28:15;;;;;;;14.17;9.47;;;-0.50;32.30;;;;;;10415656;28;20283;-68
2023/02/08 04:33:18;;;;;;;13.17;10.03;;;-0.50;32.30;;;;;;10415380;28;20772;-69
2023/02/08 04:38:22;;;;;;;12.07;9.03;;;-0.50;32.30;;;;;;10409677;28;23175;-69
2023/02/08 04:43:26;;;;;;;13.40;9.50;;;-0.50;32.30;;;;;;10397949;28;20242;-69
2023/02/08 04:48:29;;;;;;;14.10;9.57;;;-0.60;32.20;;;;;;10418081;28;20233;-69
2023/02/08 04:53:33;;;;;;;13.33;9.53;;;-0.60;32.20;;;;;;10413507;28;20224;-69
2023/02/08 04:58:36;;;;;;;13.03;9.97;;;-0.70;32.10;;;;;;10416560;28;20594;-69
2023/02/08 05:03:40;;;;;;;12.50;8.60;;;-0.70;32.10;;;;;;10419108;28;20228;-69
2023/02/08 05:08:44;;;;;;;13.80;9.67;;;-0.70;32.20;;;;;;10421742;28;20603;-69
2023/02/08 05:13:47;;;;;;;10.63;9.37;;;-0.70;32.20;;;;;;10421114;28;20237;-69
2023/02/08 05:18:50;;;;;;;12.23;9.07;;;-0.70;32.20;;;;;;10424329;28;20229;-69
2023/02/08 05:23:55;;;;;;;13.40;9.40;;;-0.70;32.20;;;;;;10416993;28;20225;-69
2023/02/08 05:28:58;;;;;;;13.53;9.50;;;-0.70;32.20;;;;;;10418477;28;20263;-69
2023/02/08 05:34:01;;;;;;;11.80;8.23;;;-0.70;32.20;;;;;;10424305;28;20654;-69
2023/02/08 05:39:06;;;;;;;11.77;9.00;;;-0.60;32.30;;;;;;10428354;28;20220;-69
2023/02/08 05:44:09;;;;;;;12.13;9.07;;;-0.70;32.20;;;;;;10431948;28;20232;-69
2023/02/08 05:49:12;;;;;;;12.27;8.43;;;-0.70;32.20;;;;;;10419915;28;20241;-69
2023/02/08 05:54:17;;;;;;;10.37;8.40;;;-0.60;32.20;;;;;;10423120;28;20225;-68
2023/02/08 05:59:20;;;;;;;14.23;9.87;;;-0.60;32.20;;;;;;10417041;28;20237;-68
2023/02/08 06:04:23;;;;;;;11.47;9.10;;;-0.60;32.20;;;;;;10421219;28;20611;-69
2023/02/08 06:09:28;;;;;;;11.77;9.10;;;-0.70;32.20;;;;;;10412581;28;20237;-71
2023/02/08 06:14:31;;;;;;;14.00;9.60;;;-0.70;32.20;;;;;;10420906;28;20233;-71
2023/02/08 06:19:34;;;;;;;11.50;8.97;;;-0.70;32.20;;;;;;10406479;28;20237;-70
2023/02/08 06:24:38;;;;;;;10.83;7.90;;;-0.70;32.20;;;;;;10410382;28;20645;-71
2023/02/08 06:29:43;;;;;;;11.40;9.17;;;-0.50;34.30;;;;;;10400756;28;20235;-71
2023/02/08 06:34:47;;;;;;;12.50;9.20;;;-0.60;34.40;;;;;;10404538;28;20233;-71
2023/02/08 06:39:51;;;;;;;12.63;9.47;;;-0.50;33.50;;;;;;10398241;28;20233;-71
2023/02/08 06:44:54;;;;;;;13.33;8.97;;;-0.50;33.00;;;;;;10416267;28;20234;-71
2023/02/08 06:49:57;;;;;;;13.60;9.07;;;-0.50;32.70;;;;;;10418256;28;20775;-71
2023/02/08 06:55:02;;;;;;;13.53;9.83;;;-0.60;32.50;;;;;;10417817;28;20812;-71
2023/02/08 07:00:06;;;;;;;11.30;9.53;;;-0.60;32.40;;;;;;10407329;28;20229;-70
2023/02/08 07:05:09;;;;;;;12.97;9.80;;;-0.60;32.40;;;;;;10420205;28;20832;-71
2023/02/08 07:10:14;;;;;;;13.27;9.60;;;-0.70;32.60;;;;;;10409516;28;20424;-71
2023/02/08 07:15:17;;;;;;;13.60;10.40;;;-0.70;33.00;;;;;;10414991;28;20229;-71
2023/02/08 07:20:20;;;;;;;13.57;10.10;;;-0.70;33.20;;;;;;10411338;28;20232;-70
2023/02/08 07:25:25;;;;;;;14.70;10.70;;;-0.70;33.30;;;;;;10414666;28;20228;-71
2023/02/08 07:30:28;;;;;;;14.00;10.40;;;-0.60;33.50;;;;;;10419746;28;20236;-71
2023/02/08 07:35:31;;;;;;;16.80;10.97;;;-0.60;33.50;;;;;;10415678;28;20316;-71
2023/02/08 07:40:36;;;;;;;13.30;10.10;;;-0.50;33.60;;;;;;10419974;28;20239;-71
2023/02/08 07:45:39;;;;;;;16.63;10.80;;;-0.40;33.70;;;;;;10409401;28;20716;-71
2023/02/08 07:50:42;;;;;;;14.87;10.87;;;-0.30;33.80;;;;;;10409872;28;20225;-71
2023/02/08 07:55:47;;;;;;;13.13;10.23;;;-0.10;34.20;;;;;;10406313;28;20235;-71
2023/02/08 08:00:50;;;;;;;13.70;10.67;;;-0.20;34.10;;;;;;10417248;28;20241;-71
2023/02/08 08:05:53;;;;;;;16.43;11.37;;;0.00;34.10;;;;;;10412339;28;20233;-71
2023/02/08 08:10:58;;;;;;;15.23;11.03;;;0.10;34.20;;;;;;10416389;28;20237;-71
2023/02/08 08:16:01;;;;;;;14.37;11.63;;;0.30;34.40;;;;;;10414159;28;20229;-72
2023/02/08 08:21:05;;;;;;;15.73;11.33;;;0.50;34.40;;;;;;10420346;28;20224;-71
2023/02/08 08:26:12;;;;;;;16.97;11.93;;;0.60;34.40;;;;;;10416565;28;20732;-70
2023/02/08 08:31:17;;;;;;;17.87;12.53;;;0.80;34.50;;;;;;10406357;28;20253;-70
2023/02/08 08:36:21;;;;;;;17.07;12.57;;;1.00;34.40;;;;;;10412851;28;20224;-69
2023/02/08 08:41:26;;;;;;;16.87;12.17;;;1.20;34.30;;;;;;10417199;28;20752;-69
2023/02/08 08:46:29;;;;;;;15.63;12.57;;;1.40;34.20;;;;;;10420894;28;20739;-69
2023/02/08 08:51:34;;;;;;;15.77;12.47;;;1.60;34.00;;;;;;10415503;28;20672;-69
2023/02/08 08:56:39;;;;;;;15.27;12.80;;;1.70;34.10;;;;;;10416075;28;20239;-68
2023/02/08 09:01:42;;;;;;;15.97;12.20;;;1.90;34.20;;;;;;10411710;28;20233;-68
2023/02/08 09:06:45;;;;;;;15.37;12.10;;;2.10;34.40;;;;;;10423352;28;20248;-68
2023/02/08 09:11:50;;;;;;;18.17;13.33;;;2.30;34.40;;;;;;10418228;28;20233;-69
2023/02/08 09:16:53;;;;;;;14.37;11.70;;;2.40;34.00;;;;;;10423473;28;20230;-69
2023/02/08 09:21:56;;;;;;;17.17;13.00;;;2.60;33.90;;;;;;10418991;28;20952;-73
2023/02/08 09:27:01;;;;;;;17.43;13.53;;;2.70;33.80;;;;;;10427123;28;20229;-73
2023/02/08 09:32:04;;;;;;;16.60;13.73;;;2.80;33.70;;;;;;10409659;28;20225;-73
2023/02/08 09:37:08;;;;;;;18.83;13.80;;;3.00;33.50;;;;;;10413549;28;20384;-72
2023/02/08 09:42:38;;;;;;;17.47;13.83;;;3.10;33.60;;;;;;10422298;28;20229;-72
2023/02/08 09:47:48;;;;;;;15.00;13.30;;;3.20;33.10;;;;;;10424373;28;20596;-72
2023/02/08 09:52:57;;;;;;;16.23;13.23;;;3.30;33.40;;;;;;10427316;28;20256;-72
2023/02/08 09:58:04;;;;;;;15.10;13.07;;;3.50;33.20;;;;;;10429077;28;20232;-72
2023/02/08 10:03:23;;;;;;;15.40;12.67;;;3.60;33.10;;;;;;10425295;28;20764;-72
2023/02/08 10:08:28;;;;;;;16.07;12.90;;;3.80;32.60;;;;;;10432423;28;20295;-71
2023/02/08 10:14:00;;;;;;;15.93;12.63;;;3.90;32.60;;;;;;10417955;28;20325;-72
2023/02/08 10:19:14;;;;;;;15.40;12.70;;;3.90;31.90;;;;;;10420210;28;20220;-72
2023/02/08 10:24:40;;;;;;;13.17;11.83;;;4.00;31.70;;;;;;10421022;28;20231;-69
2023/02/08 10:30:14;;;;;;;14.73;12.20;;;4.00;32.00;;;;;;10428935;28;20229;-71
2023/02/08 10:35:25;;;;;;;14.97;12.33;;;4.20;31.90;;;;;;10418411;28;20225;-72
2023/02/08 10:40:37;;;;;;;17.57;12.30;;;4.30;32.40;;;;;;10432565;28;20233;-73
2023/02/08 10:45:49;;;;;;;14.63;12.07;;;4.40;31.50;;;;;;10423091;28;20316;-72
2023/02/08 10:50:52;;;;;;;17.70;13.60;;;4.40;31.50;;;;;;10431235;28;20235;-72
2023/02/08 10:55:55;;;;;;;15.63;13.50;;;4.50;31.60;;;;;;10422451;28;20240;-71
2023/02/08 11:01:02;;;;;;;15.13;12.40;;;4.50;31.40;;;;;;10415533;28;20236;-70
2023/02/08 11:06:15;;;;;;;13.93;12.17;;;4.60;31.40;;;;;;10426641;28;20320;-71
2023/02/08 11:11:19;;;;;;;14.30;12.17;;;4.60;30.70;;;;;;10424888;28;20229;-70
2023/02/08 11:16:26;;;;;;;13.13;11.73;;;4.50;31.40;;;;;;10418172;28;20287;-73
2023/02/08 11:21:32;;;;;;;15.83;12.57;;;4.60;31.50;;;;;;10429720;28;20243;-73
2023/02/08 11:26:37;;;;;;;13.20;11.60;;;4.70;31.20;;;;;;10419060;28;20260;-73
2023/02/08 11:31:58;;;;;;;12.73;10.87;;;4.80;30.40;;;;;;10426675;28;20225;-73
2023/02/08 11:37:05;;;;;;;13.07;10.63;;;4.80;29.90;;;;;;10426459;28;20689;-70
2023/02/08 11:42:19;;;;;;;12.33;10.73;;;4.80;30.50;;;;;;10425072;28;20232;-71
2023/02/08 11:47:28;;;;;;;11.67;9.63;;;4.80;30.00;;;;;;10418295;28;20287;-70
2023/02/08 11:52:34;;;;;;;10.07;8.87;;;4.90;30.10;;;;;;10431615;28;20232;-71
2023/02/08 11:57:52;;;;;;;10.47;9.10;;;4.90;30.40;;;;;;10426286;28;20232;-73
2023/02/08 12:02:59;;;;;;;10.80;9.03;;;5.00;29.70;;;;;;10416780;28;20691;-73
2023/02/08 12:08:11;;;;;;;11.93;10.30;;;5.00;30.10;;;;;;10424317;28;20266;-73
2023/02/08 12:13:40;;;;;;;11.17;9.17;;;5.00;29.10;;;;;;10422016;28;20225;-73
2023/02/08 12:19:05;;;;;;;10.73;9.63;;;5.00;29.70;;;;;;10427553;28;20229;-73
2023/02/08 12:24:18;;;;;;;11.13;9.67;;;4.90;29.50;;;;;;10419353;28;20253;-71
2023/02/08 12:29:46;;;;;;;12.20;10.93;;;5.00;30.10;;;;;;10410698;28;20584;-70
2023/02/08 12:35:05;;;;;;;11.70;10.37;;;5.00;29.50;;;;;;10411525;28;20261;-71
2023/02/08 12:46:06;;;;;;;12.20;10.73;;;5.10;30.00;;;;;;10417962;28;20232;-70
2023/02/08 12:51:22;;;;;;;12.60;10.90;;;5.10;29.60;;;;;;10419592;28;20282;-70
2023/02/08 12:56:31;;;;;;;12.40;10.47;;;5.10;29.90;;;;;;10415307;28;20228;-70
2023/02/08 13:01:39;;;;;;;12.53;11.17;;;5.10;30.30;;;;;;10408224;28;20230;-70
2023/02/08 13:06:48;;;;;;;13.17;11.20;;;5.10;30.40;;;;;;10414866;28;20240;-70
2023/02/08 13:11:57;;;;;;;12.27;10.43;;;5.10;30.00;;;;;;10415724;28;20240;-70
2023/02/08 13:17:09;;;;;;;13.93;11.57;;;5.00;30.00;;;;;;10418731;28;20235;-70
2023/02/08 13:22:16;;;;;;;12.57;10.83;;;5.00;29.90;;;;;;10420647;28;20268;-71
2023/02/08 13:27:21;;;;;;;11.87;10.40;;;5.00;30.50;;;;;;10428114;28;20228;-70
2023/02/08 13:32:29;;;;;;;11.97;10.73;;;4.90;30.60;;;;;;10425448;28;20299;-70
2023/02/08 13:37:35;;;;;;;14.23;11.63;;;4.90;29.90;;;;;;10418871;28;20244;-70
2023/02/08 13:42:42;;;;;;;11.93;9.90;;;4.90;30.10;;;;;;10423389;28;20237;-70
2023/02/08 13:47:50;;;;;;;12.67;10.37;;;4.90;29.90;;;;;;10418148;28;20717;-70
2023/02/08 13:52:55;;;;;;;10.80;9.43;;;5.00;30.00;;;;;;10414099;28;20606;-70
2023/02/08 13:57:59;;;;;;;11.90;10.17;;;4.90;30.00;;;;;;10415496;28;20229;-70
2023/02/08 14:03:19;;;;;;;11.57;10.37;;;5.00;30.50;;;;;;10418358;28;20230;-70
2023/02/08 14:08:30;;;;;;;12.40;9.83;;;5.00;30.30;;;;;;10415790;28;20586;-70
2023/02/08 14:13:37;;;;;;;12.23;10.20;;;5.00;29.90;;;;;;10418190;28;20241;-71
2023/02/08 14:18:51;;;;;;;10.93;9.67;;;5.10;30.00;;;;;;10417149;28;20241;-70
2023/02/08 14:24:02;;;;;;;11.07;9.37;;;5.10;29.60;;;;;;10416769;28;20233;-73
2023/02/08 14:29:06;;;;;;;11.10;9.23;;;5.10;29.80;;;;;;10411352;28;20237;-72
2023/02/08 14:34:31;;;;;;;11.20;9.53;;;5.10;30.20;;;;;;10420469;28;20325;-72
2023/02/08 14:39:38;;;;;;;10.13;9.03;;;5.10;29.50;;;;;;10415964;28;20728;-73
2023/02/08 14:44:47;;;;;;;10.80;8.83;;;5.10;29.90;;;;;;10424145;28;20237;-73
2023/02/08 14:50:01;;;;;;;11.23;9.27;;;5.20;29.80;;;;;;10417999;28;20279;-72
2023/02/08 14:55:13;;;;;;;9.80;8.37;;;5.20;29.90;;;;;;10420861;28;20607;-73
2023/02/08 15:00:21;;;;;;;9.83;8.83;;;5.10;29.80;;;;;;10417166;28;20232;-72
2023/02/08 15:05:29;;;;;;;10.17;8.43;;;5.20;29.70;;;;;;10421038;28;20233;-77
2023/02/08 15:10:35;;;;;;;9.83;8.80;;;5.20;30.90;;;;;;10412818;28;20256;-72
2023/02/08 15:15:40;;;;;;;8.53;7.60;;;5.20;30.20;;;;;;10422208;28;20226;-72
2023/02/08 15:20:45;;;;;;;10.30;9.20;;;5.30;32.20;;;;;;10411987;28;20349;-72
2023/02/08 15:25:57;;;;;;;11.03;9.23;;;5.40;32.10;;;;;;10414537;28;20225;-72
2023/02/08 15:31:03;;;;;;;9.73;8.70;;;5.70;30.00;;;;;;10417572;28;20225;-72
2023/02/08 15:36:14;;;;;;;10.27;9.17;;;5.80;30.20;;;;;;10414696;28;20287;-72
2023/02/08 15:41:26;;;;;;;9.47;8.47;;;5.80;29.80;;;;;;10418195;28;20244;-72
2023/02/08 15:46:30;;;;;;;10.00;9.00;;;5.70;29.20;;;;;;10416221;28;20229;-72
2023/02/08 15:51:34;;;;;;;10.87;9.50;;;5.70;29.80;;;;;;10416406;28;20237;-72
2023/02/08 15:56:39;;;;;;;10.63;9.47;;;5.70;29.60;;;;;;10410618;28;20244;-71
2023/02/08 16:01:47;;;;;;;11.67;9.77;;;5.60;29.40;;;;;;10413511;28;20261;-71
2023/02/08 16:06:53;;;;;;;10.13;8.57;;;5.50;29.20;;;;;;10417680;28;20244;-76
2023/02/08 16:12:00;;;;;;;9.30;8.30;;;5.50;29.90;;;;;;10423224;28;20603;-71
2023/02/08 16:17:03;;;;;;;10.43;9.30;;;5.50;29.90;;;;;;10409699;28;20237;-72
2023/02/08 16:22:25;;;;;;;9.90;8.90;;;5.50;29.90;;;;;;10448181;22;20227;-70
2023/02/08 16:27:32;;;;;;;9.53;8.53;;;5.50;29.00;;;;;;10433949;28;20585;-71
2023/02/08 16:32:38;;;;;;;9.77;8.70;;;5.50;29.60;;;;;;10433059;28;20233;-71
2023/02/08 16:37:42;;;;;;;9.50;8.50;;;5.50;29.60;;;;;;10440441;28;20224;-71
2023/02/08 16:42:46;;;;;;;11.53;9.10;;;5.50;29.60;;;;;;10434497;28;20807;-72
2023/02/08 16:47:52;;;;;;;7.90;6.80;;;5.50;29.40;;;;;;10434854;28;20225;-71
2023/02/08 16:52:58;;;;;;;8.70;7.77;;;5.40;29.50;;;;;;10434727;28;20743;-71
2023/02/08 16:58:03;;;;;;;9.93;8.67;;;5.40;29.80;;;;;;10433378;28;20570;-71
2023/02/08 17:03:06;;;;;;;9.67;8.67;;;5.40;29.70;;;;;;10440669;28;20247;-71
2023/02/08 17:08:15;;;;;;;10.67;9.07;;;5.40;29.70;;;;;;10445785;28;20235;-72
2023/02/08 17:13:23;;;;;;;9.83;8.73;;;5.40;29.20;;;;;;10427265;28;20241;-72
2023/02/08 17:18:26;;;;;;;9.73;8.43;;;5.30;29.40;;;;;;10441405;28;20328;-72
2023/02/08 17:23:29;;;;;;;9.70;8.50;;;5.20;29.50;;;;;;10436714;28;20237;-72
2023/02/08 17:28:37;;;;;;;10.97;7.13;;;5.10;29.50;;;;;;10441327;28;20225;-72
2023/02/08 17:33:41;;;;;;;10.87;8.30;;;5.10;29.50;;;;;;10436169;28;20240;-72
2023/02/08 17:38:45;;;;;;;10.10;8.53;;;5.00;29.50;;;;;;10435976;28;20224;-72
2023/02/08 17:43:52;;;;;;;9.13;7.80;;;5.00;29.50;;;;;;10437335;28;20743;-72
2023/02/08 17:48:55;;;;;;;9.07;7.73;;;4.90;29.20;;;;;;10446476;28;20232;-72
2023/02/08 17:53:58;;;;;;;10.17;8.93;;;4.80;29.50;;;;;;10435893;28;20233;-73
2023/02/08 17:59:04;;;;;;;10.50;9.13;;;4.70;29.40;;;;;;10433427;28;20225;-73
2023/02/08 18:04:10;;;;;;;10.73;9.03;;;4.60;29.20;;;;;;10442850;28;20225;-73
2023/02/08 18:09:13;;;;;;;8.93;7.80;;;4.60;29.40;;;;;;10454151;28;20309;-73
2023/02/08 18:14:19;;;;;;;8.83;7.93;;;4.50;29.30;;;;;;10444796;28;20228;-73
2023/02/08 18:19:22;;;;;;;8.97;8.07;;;4.50;29.20;;;;;;10447432;28;20759;-73
2023/02/08 18:24:26;;;;;;;7.30;6.40;;;4.30;29.20;;;;;;10439826;28;20702;-73
2023/02/08 18:29:30;;;;;;;6.20;5.60;;;4.30;29.30;;;;;;10443084;28;20716;-73
2023/02/08 18:34:33;;;;;;;10.03;7.40;;;4.30;29.20;;;;;;10435491;28;20230;-72
2023/02/08 18:39:37;;;;;;;8.07;7.20;;;4.20;29.20;;;;;;10444797;28;20225;-73
2023/02/08 18:44:42;;;;;;;7.70;6.90;;;4.20;29.40;;;;;;10444601;28;20221;-72
2023/02/08 18:49:46;;;;;;;7.40;6.40;;;4.10;29.20;;;;;;10442447;28;20815;-72
2023/02/08 18:54:49;;;;;;;9.00;7.70;;;4.10;29.30;;;;;;10445046;28;20237;-72
2023/02/08 18:59:54;;;;;;;9.07;7.97;;;4.10;29.30;;;;;;10442885;28;20739;-73
2023/02/08 19:04:58;;;;;;;9.50;7.63;;;4.10;29.30;;;;;;10446994;28;20260;-73
2023/02/08 19:10:01;;;;;;;10.27;7.17;;;4.00;29.30;;;;;;10442579;28;20221;-72
2023/02/08 19:15:07;;;;;;;8.27;7.37;;;4.00;29.30;;;;;;10438661;28;20225;-73
2023/02/08 19:20:11;;;;;;;12.00;7.77;;;3.90;29.10;;;;;;10442884;28;20238;-73
2023/02/08 19:25:14;;;;;;;7.27;6.20;;;3.80;29.20;;;;;;10442789;28;20656;-73
2023/02/08 19:30:20;;;;;;;6.90;6.10;;;3.80;29.30;;;;;;10441829;28;20292;-73
2023/02/08 19:35:23;;;;;;;6.17;5.57;;;3.70;29.20;;;;;;10448470;28;20245;-73
2023/02/08 19:40:27;;;;;;;7.53;6.20;;;3.60;29.30;;;;;;10437308;28;20244;-73
2023/02/08 19:45:31;;;;;;;7.40;5.77;;;3.60;29.40;;;;;;10443790;28;20716;-73
2023/02/08 19:50:34;;;;;;;4.90;4.40;;;3.50;29.30;;;;;;10436505;28;20235;-73
2023/02/08 19:55:38;;;;;;;5.17;4.67;;;3.50;29.30;;;;;;10435646;28;20236;-73
2023/02/08 20:00:42;;;;;;;15.73;11.40;;;3.40;29.30;;;;;;10436418;28;20704;-73
2023/02/08 20:05:46;;;;;;;16.03;10.87;;;3.40;29.30;;;;;;10439591;28;20224;-73
2023/02/08 20:10:49;;;;;;;12.87;8.30;;;3.30;29.40;;;;;;10440393;28;20232;-73
2023/02/08 20:15:58;;;;;;;6.17;4.97;;;3.30;29.50;;;;;;10442775;28;20258;-74
2023/02/08 20:21:02;;;;;;;4.40;4.00;;;3.30;29.30;;;;;;10440242;28;20799;-73
2023/02/08 20:26:08;;;;;;;5.20;4.20;;;3.20;29.50;;;;;;10440581;28;20235;-73
2023/02/08 20:31:15;;;;;;;4.97;4.03;;;3.20;29.50;;;;;;10429740;28;20237;-73
2023/02/08 20:36:20;;;;;;;4.63;4.07;;;3.10;29.40;;;;;;10436086;28;20264;-73
2023/02/08 20:41:26;;;;;;;5.43;4.33;;;3.10;29.40;;;;;;10432477;28;20251;-74
2023/02/08 20:46:33;;;;;;;5.00;4.03;;;3.00;29.40;;;;;;10429517;28;20233;-73
2023/02/08 20:51:36;;;;;;;5.63;5.03;;;3.00;29.40;;;;;;10434343;28;20237;-73
2023/02/08 20:56:40;;;;;;;8.53;7.20;;;2.90;29.30;;;;;;10432562;28;20232;-73
2023/02/08 21:01:48;;;;;;;6.17;5.40;;;2.90;29.30;;;;;;10432764;28;20239;-73
2023/02/08 21:06:52;;;;;;;5.13;4.63;;;2.80;29.30;;;;;;10429442;28;20233;-73
2023/02/08 21:11:55;;;;;;;5.97;4.97;;;2.80;29.30;;;;;;10436366;28;20750;-73
2023/02/08 21:17:00;;;;;;;5.43;4.40;;;2.80;29.30;;;;;;10431311;28;20231;-73
2023/02/08 21:22:06;;;;;;;4.87;4.33;;;2.70;29.20;;;;;;10434876;28;20735;-73
2023/02/08 21:27:09;;;;;;;4.73;4.13;;;2.70;29.90;;;;;;10427711;28;20239;-73
2023/02/08 21:32:14;;;;;;;5.37;4.20;;;2.60;29.50;;;;;;10431888;28;20237;-73
2023/02/08 21:37:17;;;;;;;4.47;4.07;;;2.60;29.50;;;;;;10434858;28;20321;-73
2023/02/08 21:42:20;;;;;;;5.30;4.33;;;2.60;29.50;;;;;;10443436;28;20225;-72
2023/02/08 21:47:25;;;;;;;4.73;3.90;;;2.60;29.60;;;;;;10443846;28;20652;-73
2023/02/08 21:57:48;;;;;;;4.73;4.23;;;2.50;29.50;;;;;;10445361;28;20711;-73
2023/02/08 22:02:53;;;;;;;6.73;5.30;;;2.50;29.50;;;;;;10451614;28;20229;-73
2023/02/08 22:07:58;;;;;;;4.77;4.20;;;2.40;29.50;;;;;;10450519;28;20236;-73
2023/02/08 22:13:01;;;;;;;4.47;3.90;;;2.30;29.60;;;;;;10444591;28;20225;-72
2023/02/08 22:18:06;;;;;;;4.00;3.57;;;2.30;29.60;;;;;;10448329;28;20692;-73
2023/02/08 22:23:09;;;;;;;4.63;3.63;;;2.20;29.60;;;;;;10445056;28;20316;-73
2023/02/08 22:28:12;;;;;;;4.93;3.97;;;2.20;29.60;;;;;;10451023;28;20975;-73
2023/02/08 22:33:17;;;;;;;5.80;4.20;;;2.10;29.70;;;;;;10444131;28;20794;-72
2023/02/08 22:38:20;;;;;;;4.37;3.80;;;2.10;29.60;;;;;;10438225;28;20225;-73
2023/02/08 22:43:23;;;;;;;4.37;3.83;;;2.00;29.60;;;;;;10433503;28;20239;-73
2023/02/08 22:48:28;;;;;;;8.13;3.53;;;1.90;29.60;;;;;;10440117;28;20235;-72
2023/02/08 22:53:31;;;;;;;5.93;4.47;;;1.90;29.50;;;;;;10444039;28;20779;-72
2023/02/08 22:58:34;;;;;;;5.17;3.90;;;1.80;29.60;;;;;;10439936;28;20229;-73
2023/02/08 23:03:39;;;;;;;4.20;3.70;;;1.70;29.60;;;;;;10440591;28;20241;-73
2023/02/08 23:08:44;;;;;;;5.43;4.10;;;1.70;29.80;;;;;;10445735;28;20238;-73
2023/02/08 23:13:48;;;;;;;5.37;4.20;;;1.70;29.80;;;;;;10446039;28;20229;-73
2023/02/08 23:18:52;;;;;;;4.80;3.73;;;1.70;29.80;;;;;;10446115;28;20264;-73
2023/02/08 23:23:55;;;;;;;5.70;4.00;;;1.60;29.70;;;;;;10445074;28;20636;-73
2023/02/08 23:28:59;;;;;;;4.73;3.50;;;1.50;29.70;;;;;;10449248;28;21075;-73
2023/02/08 23:34:03;;;;;;;4.20;3.23;;;1.50;29.80;;;;;;10437082;28;20225;-73
2023/02/08 23:39:06;;;;;;;4.00;3.60;;;1.40;29.80;;;;;;10446518;28;20239;-73
2023/02/08 23:44:09;;;;;;;3.23;2.87;;;1.40;29.90;;;;;;10442165;28;20233;-73
2023/02/08 23:49:14;;;;;;;3.63;3.20;;;1.40;30.00;;;;;;10455936;28;20228;-73
2023/02/08 23:54:17;;;;;;;3.77;3.17;;;1.30;30.00;;;;;;10434920;28;20495;-73
2023/02/08 23:59:20;;;;;;;4.47;3.00;;;1.20;30.00;;;;;;10434124;28;20744;-73
